sensor_id;sensor_type;location;lat;lon;timestamp;P1;durP1;ratioP1;P2;durP2;ratioP2
78581;SDS011;67878;46.242;5.974;2023-12-28T00:02:10;9.93;;;6.57;;
78581;SDS011;67878;46.242;5.974;2023-12-28T00:04:36;9.25;;;6.32;;
78581;SDS011;67878;46.242;5.974;2023-12-28T00:07:04;11.15;;;6.63;;
78581;SDS011;67878;46.242;5.974;2023-12-28T00:09:29;10.02;;;6.38;;
78581;SDS011;67878;46.242;5.974;2023-12-28T00:11:55;10.38;;;6.70;;
78581;SDS011;67878;46.242;5.974;2023-12-28T00:14:20;9.38;;;6.57;;
78581;SDS011;67878;46.242;5.974;2023-12-28T00:16:46;11.52;;;6.40;;
78581;SDS011;67878;46.242;5.974;2023-12-28T00:19:11;9.32;;;6.50;;
78581;SDS011;67878;46.242;5.974;2023-12-28T00:21:36;9.60;;;6.13;;
78581;SDS011;67878;46.242;5.974;2023-12-28T00:24:02;10.70;;;7.00;;
78581;SDS011;67878;46.242;5.974;2023-12-28T00:26:27;9.30;;;6.40;;
78581;SDS011;67878;46.242;5.974;2023-12-28T00:28:53;10.25;;;6.25;;
78581;SDS011;67878;46.242;5.974;2023-12-28T00:31:19;10.18;;;6.60;;
78581;SDS011;67878;46.242;5.974;2023-12-28T00:33:44;8.80;;;6.00;;
78581;SDS011;67878;46.242;5.974;2023-12-28T00:36:10;8.98;;;6.22;;
78581;SDS011;67878;46.242;5.974;2023-12-28T00:38:35;9.57;;;6.40;;
78581;SDS011;67878;46.242;5.974;2023-12-28T00:41:00;9.57;;;5.60;;
78581;SDS011;67878;46.242;5.974;2023-12-28T00:43:26;9.73;;;6.15;;
78581;SDS011;67878;46.242;5.974;2023-12-28T00:45:51;7.80;;;5.32;;
78581;SDS011;67878;46.242;5.974;2023-12-28T00:48:17;10.05;;;6.32;;
78581;SDS011;67878;46.242;5.974;2023-12-28T00:50:42;9.88;;;6.25;;
78581;SDS011;67878;46.242;5.974;2023-12-28T00:53:08;9.48;;;5.85;;
78581;SDS011;67878;46.242;5.974;2023-12-28T00:55:33;9.70;;;6.05;;
78581;SDS011;67878;46.242;5.974;2023-12-28T00:57:58;7.70;;;5.75;;
78581;SDS011;67878;46.242;5.974;2023-12-28T01:00:24;8.05;;;5.93;;
78581;SDS011;67878;46.242;5.974;2023-12-28T01:02:49;7.88;;;5.95;;
78581;SDS011;67878;46.242;5.974;2023-12-28T01:05:15;8.27;;;5.85;;
78581;SDS011;67878;46.242;5.974;2023-12-28T01:07:41;9.02;;;5.43;;
78581;SDS011;67878;46.242;5.974;2023-12-28T01:10:07;7.30;;;5.53;;
78581;SDS011;67878;46.242;5.974;2023-12-28T01:12:32;8.82;;;5.55;;
78581;SDS011;67878;46.242;5.974;2023-12-28T01:14:58;8.30;;;5.78;;
78581;SDS011;67878;46.242;5.974;2023-12-28T01:17:23;7.40;;;5.57;;
78581;SDS011;67878;46.242;5.974;2023-12-28T01:19:49;7.93;;;5.30;;
78581;SDS011;67878;46.242;5.974;2023-12-28T01:22:14;8.80;;;6.07;;
78581;SDS011;67878;46.242;5.974;2023-12-28T01:24:40;8.60;;;5.43;;
78581;SDS011;67878;46.242;5.974;2023-12-28T01:27:05;7.72;;;5.35;;
78581;SDS011;67878;46.242;5.974;2023-12-28T01:29:31;8.68;;;4.75;;
78581;SDS011;67878;46.242;5.974;2023-12-28T01:31:57;6.70;;;4.80;;
78581;SDS011;67878;46.242;5.974;2023-12-28T01:34:23;7.38;;;5.38;;
78581;SDS011;67878;46.242;5.974;2023-12-28T01:36:48;8.35;;;5.07;;
78581;SDS011;67878;46.242;5.974;2023-12-28T01:39:14;9.25;;;5.40;;
78581;SDS011;67878;46.242;5.974;2023-12-28T01:41:40;10.55;;;5.00;;
78581;SDS011;67878;46.242;5.974;2023-12-28T01:44:06;11.20;;;5.95;;
78581;SDS011;67878;46.242;5.974;2023-12-28T01:46:31;9.60;;;5.65;;
78581;SDS011;67878;46.242;5.974;2023-12-28T01:48:58;8.68;;;4.93;;
78581;SDS011;67878;46.242;5.974;2023-12-28T01:51:24;7.60;;;5.15;;
78581;SDS011;67878;46.242;5.974;2023-12-28T01:53:51;7.22;;;4.70;;
78581;SDS011;67878;46.242;5.974;2023-12-28T01:56:18;7.13;;;5.10;;
78581;SDS011;67878;46.242;5.974;2023-12-28T01:58:45;9.82;;;5.35;;
78581;SDS011;67878;46.242;5.974;2023-12-28T02:01:11;9.23;;;5.03;;
78581;SDS011;67878;46.242;5.974;2023-12-28T02:03:37;8.60;;;5.00;;
78581;SDS011;67878;46.242;5.974;2023-12-28T02:06:04;7.60;;;4.50;;
78581;SDS011;67878;46.242;5.974;2023-12-28T02:10:57;7.18;;;5.05;;
78581;SDS011;67878;46.242;5.974;2023-12-28T02:13:23;8.40;;;5.00;;
78581;SDS011;67878;46.242;5.974;2023-12-28T02:16:12;6.22;;;4.88;;
78581;SDS011;67878;46.242;5.974;2023-12-28T02:18:39;6.22;;;4.53;;
78581;SDS011;67878;46.242;5.974;2023-12-28T02:21:12;5.63;;;4.43;;
78581;SDS011;67878;46.242;5.974;2023-12-28T02:23:39;5.68;;;4.40;;
78581;SDS011;67878;46.242;5.974;2023-12-28T02:26:10;6.47;;;4.90;;
78581;SDS011;67878;46.242;5.974;2023-12-28T02:28:36;7.43;;;4.72;;
78581;SDS011;67878;46.242;5.974;2023-12-28T02:31:01;7.82;;;4.50;;
78581;SDS011;67878;46.242;5.974;2023-12-28T02:33:31;10.07;;;5.13;;
78581;SDS011;67878;46.242;5.974;2023-12-28T02:36:01;6.80;;;4.45;;
78581;SDS011;67878;46.242;5.974;2023-12-28T02:38:32;5.18;;;4.03;;
78581;SDS011;67878;46.242;5.974;2023-12-28T02:41:01;5.47;;;4.03;;
78581;SDS011;67878;46.242;5.974;2023-12-28T02:43:28;5.82;;;4.85;;
78581;SDS011;67878;46.242;5.974;2023-12-28T02:45:54;7.50;;;4.53;;
78581;SDS011;67878;46.242;5.974;2023-12-28T02:48:20;6.25;;;4.65;;
78581;SDS011;67878;46.242;5.974;2023-12-28T02:50:45;6.82;;;4.50;;
78581;SDS011;67878;46.242;5.974;2023-12-28T02:53:11;6.38;;;4.32;;
78581;SDS011;67878;46.242;5.974;2023-12-28T02:55:37;5.82;;;4.10;;
78581;SDS011;67878;46.242;5.974;2023-12-28T02:58:03;7.63;;;4.40;;
78581;SDS011;67878;46.242;5.974;2023-12-28T03:00:28;6.85;;;4.25;;
78581;SDS011;67878;46.242;5.974;2023-12-28T03:02:54;6.15;;;4.25;;
78581;SDS011;67878;46.242;5.974;2023-12-28T03:05:19;5.85;;;4.00;;
78581;SDS011;67878;46.242;5.974;2023-12-28T03:07:45;6.25;;;4.38;;
78581;SDS011;67878;46.242;5.974;2023-12-28T03:10:10;5.50;;;4.00;;
78581;SDS011;67878;46.242;5.974;2023-12-28T03:12:37;6.22;;;3.75;;
78581;SDS011;67878;46.242;5.974;2023-12-28T03:15:05;6.00;;;4.03;;
78581;SDS011;67878;46.242;5.974;2023-12-28T03:17:31;5.68;;;3.92;;
78581;SDS011;67878;46.242;5.974;2023-12-28T03:20:00;5.20;;;4.32;;
78581;SDS011;67878;46.242;5.974;2023-12-28T03:22:26;6.47;;;4.45;;
78581;SDS011;67878;46.242;5.974;2023-12-28T03:24:52;5.90;;;3.83;;
78581;SDS011;67878;46.242;5.974;2023-12-28T03:27:17;4.28;;;3.70;;
78581;SDS011;67878;46.242;5.974;2023-12-28T03:29:42;5.57;;;3.83;;
78581;SDS011;67878;46.242;5.974;2023-12-28T03:32:08;5.75;;;3.80;;
78581;SDS011;67878;46.242;5.974;2023-12-28T03:34:33;6.32;;;4.00;;
78581;SDS011;67878;46.242;5.974;2023-12-28T03:36:59;4.78;;;3.65;;
78581;SDS011;67878;46.242;5.974;2023-12-28T03:39:24;7.50;;;4.20;;
78581;SDS011;67878;46.242;5.974;2023-12-28T03:41:50;5.10;;;3.90;;
78581;SDS011;67878;46.242;5.974;2023-12-28T03:44:18;4.85;;;3.88;;
78581;SDS011;67878;46.242;5.974;2023-12-28T03:46:45;5.18;;;3.83;;
78581;SDS011;67878;46.242;5.974;2023-12-28T03:49:12;4.88;;;3.60;;
78581;SDS011;67878;46.242;5.974;2023-12-28T03:51:41;5.03;;;3.55;;
78581;SDS011;67878;46.242;5.974;2023-12-28T03:54:06;5.57;;;3.67;;
78581;SDS011;67878;46.242;5.974;2023-12-28T03:56:32;4.07;;;3.63;;
78581;SDS011;67878;46.242;5.974;2023-12-28T03:59:00;4.82;;;3.67;;
78581;SDS011;67878;46.242;5.974;2023-12-28T04:01:26;6.50;;;3.75;;
78581;SDS011;67878;46.242;5.974;2023-12-28T04:03:51;5.57;;;3.60;;
78581;SDS011;67878;46.242;5.974;2023-12-28T04:06:17;4.03;;;3.38;;
78581;SDS011;67878;46.242;5.974;2023-12-28T04:08:42;4.82;;;3.50;;
78581;SDS011;67878;46.242;5.974;2023-12-28T04:11:08;5.15;;;3.90;;
78581;SDS011;67878;46.242;5.974;2023-12-28T04:13:34;4.45;;;3.63;;
78581;SDS011;67878;46.242;5.974;2023-12-28T04:16:00;4.70;;;3.65;;
78581;SDS011;67878;46.242;5.974;2023-12-28T04:18:26;5.80;;;3.67;;
78581;SDS011;67878;46.242;5.974;2023-12-28T04:20:51;5.35;;;3.80;;
78581;SDS011;67878;46.242;5.974;2023-12-28T04:23:17;3.90;;;2.90;;
78581;SDS011;67878;46.242;5.974;2023-12-28T04:25:42;4.97;;;3.40;;
78581;SDS011;67878;46.242;5.974;2023-12-28T04:28:08;4.30;;;3.30;;
78581;SDS011;67878;46.242;5.974;2023-12-28T04:30:33;3.58;;;2.95;;
78581;SDS011;67878;46.242;5.974;2023-12-28T04:33:02;5.03;;;3.33;;
78581;SDS011;67878;46.242;5.974;2023-12-28T04:35:28;3.97;;;3.42;;
78581;SDS011;67878;46.242;5.974;2023-12-28T04:37:54;5.90;;;3.28;;
78581;SDS011;67878;46.242;5.974;2023-12-28T04:40:19;5.22;;;3.38;;
78581;SDS011;67878;46.242;5.974;2023-12-28T04:42:47;3.88;;;3.30;;
78581;SDS011;67878;46.242;5.974;2023-12-28T04:45:13;4.43;;;3.28;;
78581;SDS011;67878;46.242;5.974;2023-12-28T04:47:39;4.25;;;2.95;;
78581;SDS011;67878;46.242;5.974;2023-12-28T04:50:05;4.95;;;3.13;;
78581;SDS011;67878;46.242;5.974;2023-12-28T04:52:32;3.58;;;2.95;;
78581;SDS011;67878;46.242;5.974;2023-12-28T04:54:58;4.90;;;3.30;;
78581;SDS011;67878;46.242;5.974;2023-12-28T04:57:24;3.63;;;3.17;;
78581;SDS011;67878;46.242;5.974;2023-12-28T04:59:50;4.10;;;3.22;;
78581;SDS011;67878;46.242;5.974;2023-12-28T05:02:16;4.07;;;2.75;;
78581;SDS011;67878;46.242;5.974;2023-12-28T05:04:41;3.80;;;3.00;;
78581;SDS011;67878;46.242;5.974;2023-12-28T05:07:07;4.20;;;3.05;;
78581;SDS011;67878;46.242;5.974;2023-12-28T05:09:33;3.80;;;2.90;;
78581;SDS011;67878;46.242;5.974;2023-12-28T05:11:58;4.80;;;2.97;;
78581;SDS011;67878;46.242;5.974;2023-12-28T05:14:23;5.13;;;3.40;;
78581;SDS011;67878;46.242;5.974;2023-12-28T05:16:49;4.30;;;3.30;;
78581;SDS011;67878;46.242;5.974;2023-12-28T05:19:14;4.45;;;3.40;;
78581;SDS011;67878;46.242;5.974;2023-12-28T05:21:40;3.53;;;3.20;;
78581;SDS011;67878;46.242;5.974;2023-12-28T05:24:06;4.15;;;2.80;;
78581;SDS011;67878;46.242;5.974;2023-12-28T05:26:31;4.32;;;3.00;;
78581;SDS011;67878;46.242;5.974;2023-12-28T05:28:57;3.33;;;3.00;;
78581;SDS011;67878;46.242;5.974;2023-12-28T05:31:22;3.53;;;2.85;;
78581;SDS011;67878;46.242;5.974;2023-12-28T05:33:48;3.08;;;2.78;;
78581;SDS011;67878;46.242;5.974;2023-12-28T05:36:13;4.45;;;2.70;;
78581;SDS011;67878;46.242;5.974;2023-12-28T05:38:39;3.70;;;2.80;;
78581;SDS011;67878;46.242;5.974;2023-12-28T05:41:04;3.53;;;2.80;;
78581;SDS011;67878;46.242;5.974;2023-12-28T05:43:29;4.82;;;2.85;;
78581;SDS011;67878;46.242;5.974;2023-12-28T05:45:55;3.72;;;3.15;;
78581;SDS011;67878;46.242;5.974;2023-12-28T05:48:20;4.18;;;2.78;;
78581;SDS011;67878;46.242;5.974;2023-12-28T05:50:46;4.15;;;3.13;;
78581;SDS011;67878;46.242;5.974;2023-12-28T05:53:11;4.38;;;2.88;;
78581;SDS011;67878;46.242;5.974;2023-12-28T05:55:42;4.65;;;2.90;;
78581;SDS011;67878;46.242;5.974;2023-12-28T05:58:08;3.03;;;2.67;;
78581;SDS011;67878;46.242;5.974;2023-12-28T06:00:33;3.47;;;2.63;;
78581;SDS011;67878;46.242;5.974;2023-12-28T06:03:01;3.15;;;2.45;;
78581;SDS011;67878;46.242;5.974;2023-12-28T06:05:27;3.30;;;2.75;;
78581;SDS011;67878;46.242;5.974;2023-12-28T06:07:52;4.63;;;2.80;;
78581;SDS011;67878;46.242;5.974;2023-12-28T06:10:18;4.50;;;3.15;;
78581;SDS011;67878;46.242;5.974;2023-12-28T06:12:43;3.35;;;2.53;;
78581;SDS011;67878;46.242;5.974;2023-12-28T06:15:09;3.65;;;2.97;;
78581;SDS011;67878;46.242;5.974;2023-12-28T06:17:34;4.25;;;2.75;;
78581;SDS011;67878;46.242;5.974;2023-12-28T06:20:00;4.78;;;2.60;;
78581;SDS011;67878;46.242;5.974;2023-12-28T06:22:26;4.43;;;3.00;;
78581;SDS011;67878;46.242;5.974;2023-12-28T06:24:53;3.33;;;2.78;;
78581;SDS011;67878;46.242;5.974;2023-12-28T06:27:19;3.53;;;2.67;;
78581;SDS011;67878;46.242;5.974;2023-12-28T06:29:45;2.90;;;2.60;;
78581;SDS011;67878;46.242;5.974;2023-12-28T06:32:10;3.33;;;2.53;;
78581;SDS011;67878;46.242;5.974;2023-12-28T06:34:36;4.10;;;2.67;;
78581;SDS011;67878;46.242;5.974;2023-12-28T06:37:01;3.15;;;2.53;;
78581;SDS011;67878;46.242;5.974;2023-12-28T06:39:27;4.10;;;2.50;;
78581;SDS011;67878;46.242;5.974;2023-12-28T06:41:52;3.88;;;2.45;;
78581;SDS011;67878;46.242;5.974;2023-12-28T06:44:18;3.78;;;2.67;;
78581;SDS011;67878;46.242;5.974;2023-12-28T06:46:43;3.50;;;3.00;;
78581;SDS011;67878;46.242;5.974;2023-12-28T06:49:08;4.70;;;2.65;;
78581;SDS011;67878;46.242;5.974;2023-12-28T06:51:35;4.50;;;3.15;;
78581;SDS011;67878;46.242;5.974;2023-12-28T06:54:03;7.35;;;3.53;;
78581;SDS011;67878;46.242;5.974;2023-12-28T06:56:29;5.13;;;2.83;;
78581;SDS011;67878;46.242;5.974;2023-12-28T06:58:54;6.45;;;3.15;;
78581;SDS011;67878;46.242;5.974;2023-12-28T07:01:19;7.70;;;3.28;;
78581;SDS011;67878;46.242;5.974;2023-12-28T07:03:45;4.35;;;2.88;;
78581;SDS011;67878;46.242;5.974;2023-12-28T07:06:10;3.85;;;2.38;;
78581;SDS011;67878;46.242;5.974;2023-12-28T07:08:36;5.65;;;2.78;;
78581;SDS011;67878;46.242;5.974;2023-12-28T07:11:02;6.07;;;3.50;;
78581;SDS011;67878;46.242;5.974;2023-12-28T07:13:28;5.18;;;3.03;;
78581;SDS011;67878;46.242;5.974;2023-12-28T07:15:54;5.50;;;2.95;;
78581;SDS011;67878;46.242;5.974;2023-12-28T07:18:19;6.75;;;2.97;;
78581;SDS011;67878;46.242;5.974;2023-12-28T07:20:45;9.25;;;3.95;;
78581;SDS011;67878;46.242;5.974;2023-12-28T07:23:10;6.78;;;3.17;;
78581;SDS011;67878;46.242;5.974;2023-12-28T07:25:36;9.25;;;3.40;;
78581;SDS011;67878;46.242;5.974;2023-12-28T07:28:01;8.68;;;3.55;;
78581;SDS011;67878;46.242;5.974;2023-12-28T07:30:28;6.55;;;3.00;;
78581;SDS011;67878;46.242;5.974;2023-12-28T07:32:56;7.90;;;3.40;;
78581;SDS011;67878;46.242;5.974;2023-12-28T07:35:22;5.85;;;3.25;;
78581;SDS011;67878;46.242;5.974;2023-12-28T07:37:47;6.03;;;2.90;;
78581;SDS011;67878;46.242;5.974;2023-12-28T07:40:13;6.60;;;3.22;;
78581;SDS011;67878;46.242;5.974;2023-12-28T07:42:38;6.78;;;2.70;;
78581;SDS011;67878;46.242;5.974;2023-12-28T07:45:04;4.15;;;2.58;;
78581;SDS011;67878;46.242;5.974;2023-12-28T07:47:30;4.22;;;2.72;;
78581;SDS011;67878;46.242;5.974;2023-12-28T07:49:55;6.43;;;2.72;;
78581;SDS011;67878;46.242;5.974;2023-12-28T07:52:21;7.90;;;2.90;;
78581;SDS011;67878;46.242;5.974;2023-12-28T07:54:46;10.70;;;2.70;;
78581;SDS011;67878;46.242;5.974;2023-12-28T07:57:12;7.07;;;2.83;;
78581;SDS011;67878;46.242;5.974;2023-12-28T07:59:37;6.78;;;3.00;;
78581;SDS011;67878;46.242;5.974;2023-12-28T08:02:03;9.95;;;3.28;;
78581;SDS011;67878;46.242;5.974;2023-12-28T08:04:29;6.80;;;2.67;;
78581;SDS011;67878;46.242;5.974;2023-12-28T08:06:54;5.00;;;2.83;;
78581;SDS011;67878;46.242;5.974;2023-12-28T08:09:19;5.20;;;3.13;;
78581;SDS011;67878;46.242;5.974;2023-12-28T08:11:45;5.90;;;3.28;;
78581;SDS011;67878;46.242;5.974;2023-12-28T08:14:10;3.72;;;2.92;;
78581;SDS011;67878;46.242;5.974;2023-12-28T08:16:36;5.22;;;3.22;;
78581;SDS011;67878;46.242;5.974;2023-12-28T08:19:02;4.32;;;3.00;;
78581;SDS011;67878;46.242;5.974;2023-12-28T08:21:27;6.57;;;3.05;;
78581;SDS011;67878;46.242;5.974;2023-12-28T08:23:53;5.38;;;3.10;;
78581;SDS011;67878;46.242;5.974;2023-12-28T08:26:18;4.65;;;2.92;;
78581;SDS011;67878;46.242;5.974;2023-12-28T08:28:44;3.78;;;2.83;;
78581;SDS011;67878;46.242;5.974;2023-12-28T08:31:09;4.47;;;3.08;;
78581;SDS011;67878;46.242;5.974;2023-12-28T08:33:36;4.72;;;3.20;;
78581;SDS011;67878;46.242;5.974;2023-12-28T08:36:06;3.30;;;2.90;;
78581;SDS011;67878;46.242;5.974;2023-12-28T08:38:36;3.85;;;3.08;;
78581;SDS011;67878;46.242;5.974;2023-12-28T08:41:02;5.10;;;2.70;;
78581;SDS011;67878;46.242;5.974;2023-12-28T08:43:28;3.67;;;3.15;;
78581;SDS011;67878;46.242;5.974;2023-12-28T08:45:54;5.10;;;2.90;;
78581;SDS011;67878;46.242;5.974;2023-12-28T08:48:20;2.90;;;2.60;;
78581;SDS011;67878;46.242;5.974;2023-12-28T08:50:46;4.50;;;3.10;;
78581;SDS011;67878;46.242;5.974;2023-12-28T08:53:11;4.78;;;2.85;;
78581;SDS011;67878;46.242;5.974;2023-12-28T08:55:37;4.40;;;2.80;;
78581;SDS011;67878;46.242;5.974;2023-12-28T08:58:02;4.57;;;2.97;;
78581;SDS011;67878;46.242;5.974;2023-12-28T09:00:28;4.47;;;2.95;;
78581;SDS011;67878;46.242;5.974;2023-12-28T09:02:53;5.20;;;2.75;;
78581;SDS011;67878;46.242;5.974;2023-12-28T09:05:18;3.92;;;2.88;;
78581;SDS011;67878;46.242;5.974;2023-12-28T09:07:44;5.75;;;2.95;;
78581;SDS011;67878;46.242;5.974;2023-12-28T09:10:10;5.40;;;2.80;;
78581;SDS011;67878;46.242;5.974;2023-12-28T09:12:36;3.53;;;2.80;;
78581;SDS011;67878;46.242;5.974;2023-12-28T09:15:04;4.65;;;2.72;;
78581;SDS011;67878;46.242;5.974;2023-12-28T09:17:30;4.35;;;2.67;;
78581;SDS011;67878;46.242;5.974;2023-12-28T09:19:56;4.18;;;2.72;;
78581;SDS011;67878;46.242;5.974;2023-12-28T09:22:23;5.15;;;2.80;;
78581;SDS011;67878;46.242;5.974;2023-12-28T09:24:49;4.78;;;2.42;;
78581;SDS011;67878;46.242;5.974;2023-12-28T09:27:16;4.07;;;3.00;;
78581;SDS011;67878;46.242;5.974;2023-12-28T09:29:41;3.83;;;2.97;;
78581;SDS011;67878;46.242;5.974;2023-12-28T09:32:08;4.65;;;3.13;;
78581;SDS011;67878;46.242;5.974;2023-12-28T09:34:39;4.22;;;2.88;;
78581;SDS011;67878;46.242;5.974;2023-12-28T09:37:06;3.03;;;2.65;;
78581;SDS011;67878;46.242;5.974;2023-12-28T09:39:34;3.83;;;2.53;;
78581;SDS011;67878;46.242;5.974;2023-12-28T09:42:02;4.35;;;2.80;;
78581;SDS011;67878;46.242;5.974;2023-12-28T09:44:33;3.50;;;2.42;;
78581;SDS011;67878;46.242;5.974;2023-12-28T09:47:01;4.15;;;2.72;;
78581;SDS011;67878;46.242;5.974;2023-12-28T09:49:27;5.03;;;2.95;;
78581;SDS011;67878;46.242;5.974;2023-12-28T09:51:56;4.22;;;2.72;;
78581;SDS011;67878;46.242;5.974;2023-12-28T09:54:23;5.93;;;3.00;;
78581;SDS011;67878;46.242;5.974;2023-12-28T09:56:49;5.10;;;2.78;;
78581;SDS011;67878;46.242;5.974;2023-12-28T09:59:22;3.30;;;2.60;;
78581;SDS011;67878;46.242;5.974;2023-12-28T10:01:49;4.72;;;3.10;;
78581;SDS011;67878;46.242;5.974;2023-12-28T10:04:15;5.07;;;2.85;;
78581;SDS011;67878;46.242;5.974;2023-12-28T10:06:41;5.28;;;3.10;;
78581;SDS011;67878;46.242;5.974;2023-12-28T10:09:06;5.07;;;2.70;;
78581;SDS011;67878;46.242;5.974;2023-12-28T10:11:34;6.40;;;3.03;;
78581;SDS011;67878;46.242;5.974;2023-12-28T10:14:00;5.85;;;2.72;;
78581;SDS011;67878;46.242;5.974;2023-12-28T10:16:27;5.18;;;3.17;;
78581;SDS011;67878;46.242;5.974;2023-12-28T10:18:52;4.03;;;2.80;;
78581;SDS011;67878;46.242;5.974;2023-12-28T10:21:20;3.67;;;2.60;;
78581;SDS011;67878;46.242;5.974;2023-12-28T10:23:45;4.68;;;3.03;;
78581;SDS011;67878;46.242;5.974;2023-12-28T10:26:11;4.65;;;2.70;;
78581;SDS011;67878;46.242;5.974;2023-12-28T10:28:36;5.60;;;2.65;;
78581;SDS011;67878;46.242;5.974;2023-12-28T10:33:34;5.07;;;2.63;;
78581;SDS011;67878;46.242;5.974;2023-12-28T10:36:00;3.33;;;2.70;;
78581;SDS011;67878;46.242;5.974;2023-12-28T10:38:34;4.07;;;2.60;;
78581;SDS011;67878;46.242;5.974;2023-12-28T10:41:03;4.45;;;2.80;;
78581;SDS011;67878;46.242;5.974;2023-12-28T10:43:31;4.30;;;2.83;;
78581;SDS011;67878;46.242;5.974;2023-12-28T10:46:13;5.28;;;3.20;;
78581;SDS011;67878;46.242;5.974;2023-12-28T10:48:49;5.78;;;3.25;;
78581;SDS011;67878;46.242;5.974;2023-12-28T10:51:18;8.38;;;2.85;;
78581;SDS011;67878;46.242;5.974;2023-12-28T10:53:49;4.70;;;3.08;;
78581;SDS011;67878;46.242;5.974;2023-12-28T10:56:40;6.07;;;3.22;;
78581;SDS011;67878;46.242;5.974;2023-12-28T10:59:17;5.75;;;3.33;;
78581;SDS011;67878;46.242;5.974;2023-12-28T11:01:54;6.20;;;3.75;;
78581;SDS011;67878;46.242;5.974;2023-12-28T11:06:55;5.68;;;3.38;;
78581;SDS011;67878;46.242;5.974;2023-12-28T11:09:23;6.20;;;2.97;;
78581;SDS011;67878;46.242;5.974;2023-12-28T11:11:52;4.45;;;2.90;;
78581;SDS011;67878;46.242;5.974;2023-12-28T11:14:25;6.32;;;3.05;;
78581;SDS011;67878;46.242;5.974;2023-12-28T11:16:54;7.03;;;2.78;;
78581;SDS011;67878;46.242;5.974;2023-12-28T11:19:25;4.40;;;2.67;;
78581;SDS011;67878;46.242;5.974;2023-12-28T11:24:23;9.15;;;3.42;;
78581;SDS011;67878;46.242;5.974;2023-12-28T11:26:53;5.53;;;2.90;;
78581;SDS011;67878;46.242;5.974;2023-12-28T11:29:22;4.63;;;2.92;;
78581;SDS011;67878;46.242;5.974;2023-12-28T11:31:53;5.82;;;3.30;;
78581;SDS011;67878;46.242;5.974;2023-12-28T11:34:29;4.50;;;2.60;;
78581;SDS011;67878;46.242;5.974;2023-12-28T11:36:56;6.35;;;3.30;;
78581;SDS011;67878;46.242;5.974;2023-12-28T11:39:31;4.75;;;3.17;;
78581;SDS011;67878;46.242;5.974;2023-12-28T11:42:02;5.07;;;3.20;;
78581;SDS011;67878;46.242;5.974;2023-12-28T11:44:36;6.97;;;2.60;;
78581;SDS011;67878;46.242;5.974;2023-12-28T11:47:14;5.80;;;3.10;;
78581;SDS011;67878;46.242;5.974;2023-12-28T11:49:40;5.50;;;2.78;;
78581;SDS011;67878;46.242;5.974;2023-12-28T11:52:07;3.88;;;2.70;;
78581;SDS011;67878;46.242;5.974;2023-12-28T11:54:34;4.70;;;2.75;;
78581;SDS011;67878;46.242;5.974;2023-12-28T11:57:00;3.65;;;2.60;;
78581;SDS011;67878;46.242;5.974;2023-12-28T11:59:25;7.72;;;2.45;;
78581;SDS011;67878;46.242;5.974;2023-12-28T12:01:54;4.28;;;2.83;;
78581;SDS011;67878;46.242;5.974;2023-12-28T12:04:20;4.80;;;2.72;;
78581;SDS011;67878;46.242;5.974;2023-12-28T12:06:46;6.55;;;2.90;;
78581;SDS011;67878;46.242;5.974;2023-12-28T12:09:16;5.13;;;2.75;;
78581;SDS011;67878;46.242;5.974;2023-12-28T12:11:43;6.72;;;2.92;;
78581;SDS011;67878;46.242;5.974;2023-12-28T12:14:11;5.25;;;2.90;;
78581;SDS011;67878;46.242;5.974;2023-12-28T12:16:37;3.60;;;2.72;;
78581;SDS011;67878;46.242;5.974;2023-12-28T12:19:04;6.43;;;3.03;;
78581;SDS011;67878;46.242;5.974;2023-12-28T12:21:32;3.78;;;2.78;;
78581;SDS011;67878;46.242;5.974;2023-12-28T12:23:58;4.53;;;3.13;;
78581;SDS011;67878;46.242;5.974;2023-12-28T12:26:24;4.97;;;2.83;;
78581;SDS011;67878;46.242;5.974;2023-12-28T12:28:51;4.57;;;2.80;;
78581;SDS011;67878;46.242;5.974;2023-12-28T12:31:16;7.07;;;3.28;;
78581;SDS011;67878;46.242;5.974;2023-12-28T12:33:42;3.45;;;2.63;;
78581;SDS011;67878;46.242;5.974;2023-12-28T12:36:08;3.53;;;2.70;;
78581;SDS011;67878;46.242;5.974;2023-12-28T12:38:34;4.30;;;2.85;;
78581;SDS011;67878;46.242;5.974;2023-12-28T12:41:00;3.85;;;2.65;;
78581;SDS011;67878;46.242;5.974;2023-12-28T12:43:28;3.97;;;2.90;;
78581;SDS011;67878;46.242;5.974;2023-12-28T12:45:54;3.33;;;2.60;;
78581;SDS011;67878;46.242;5.974;2023-12-28T12:48:20;4.70;;;2.53;;
78581;SDS011;67878;46.242;5.974;2023-12-28T12:50:47;3.95;;;2.88;;
78581;SDS011;67878;46.242;5.974;2023-12-28T12:53:15;2.92;;;2.25;;
78581;SDS011;67878;46.242;5.974;2023-12-28T12:55:41;3.47;;;2.55;;
78581;SDS011;67878;46.242;5.974;2023-12-28T12:58:08;3.08;;;2.28;;
78581;SDS011;67878;46.242;5.974;2023-12-28T13:00:35;5.03;;;2.72;;
78581;SDS011;67878;46.242;5.974;2023-12-28T13:03:00;4.93;;;2.75;;
78581;SDS011;67878;46.242;5.974;2023-12-28T13:05:26;9.88;;;2.60;;
78581;SDS011;67878;46.242;5.974;2023-12-28T13:07:51;6.43;;;2.65;;
78581;SDS011;67878;46.242;5.974;2023-12-28T13:10:17;2.42;;;2.08;;
78581;SDS011;67878;46.242;5.974;2023-12-28T13:12:42;4.45;;;2.72;;
78581;SDS011;67878;46.242;5.974;2023-12-28T13:15:08;4.13;;;2.42;;
78581;SDS011;67878;46.242;5.974;2023-12-28T13:17:35;5.28;;;2.50;;
78581;SDS011;67878;46.242;5.974;2023-12-28T13:20:01;3.63;;;2.42;;
78581;SDS011;67878;46.242;5.974;2023-12-28T13:22:28;3.47;;;2.40;;
78581;SDS011;67878;46.242;5.974;2023-12-28T13:24:53;4.93;;;2.35;;
78581;SDS011;67878;46.242;5.974;2023-12-28T13:27:19;5.32;;;2.30;;
78581;SDS011;67878;46.242;5.974;2023-12-28T13:29:44;5.00;;;2.97;;
78581;SDS011;67878;46.242;5.974;2023-12-28T13:32:10;6.07;;;2.50;;
78581;SDS011;67878;46.242;5.974;2023-12-28T13:34:35;5.90;;;2.20;;
78581;SDS011;67878;46.242;5.974;2023-12-28T13:37:00;5.32;;;2.65;;
78581;SDS011;67878;46.242;5.974;2023-12-28T13:39:27;4.55;;;2.10;;
78581;SDS011;67878;46.242;5.974;2023-12-28T13:41:53;3.05;;;2.00;;
78581;SDS011;67878;46.242;5.974;2023-12-28T13:44:19;2.97;;;2.35;;
78581;SDS011;67878;46.242;5.974;2023-12-28T13:46:45;4.20;;;2.25;;
78581;SDS011;67878;46.242;5.974;2023-12-28T13:49:10;3.22;;;2.40;;
78581;SDS011;67878;46.242;5.974;2023-12-28T13:51:36;3.17;;;2.13;;
78581;SDS011;67878;46.242;5.974;2023-12-28T13:54:01;3.20;;;2.40;;
78581;SDS011;67878;46.242;5.974;2023-12-28T13:56:27;3.78;;;2.58;;
78581;SDS011;67878;46.242;5.974;2023-12-28T13:58:53;4.15;;;2.30;;
78581;SDS011;67878;46.242;5.974;2023-12-28T14:01:19;2.63;;;2.25;;
78581;SDS011;67878;46.242;5.974;2023-12-28T14:03:44;3.22;;;2.20;;
78581;SDS011;67878;46.242;5.974;2023-12-28T14:08:38;4.00;;;2.30;;
78581;SDS011;67878;46.242;5.974;2023-12-28T14:11:04;3.22;;;2.20;;
78581;SDS011;67878;46.242;5.974;2023-12-28T14:13:29;4.13;;;2.50;;
78581;SDS011;67878;46.242;5.974;2023-12-28T14:15:56;2.88;;;1.90;;
78581;SDS011;67878;46.242;5.974;2023-12-28T14:18:23;2.63;;;2.17;;
78581;SDS011;67878;46.242;5.974;2023-12-28T14:20:53;4.68;;;2.20;;
78581;SDS011;67878;46.242;5.974;2023-12-28T14:23:19;3.05;;;2.08;;
78581;SDS011;67878;46.242;5.974;2023-12-28T14:25:45;3.17;;;2.42;;
78581;SDS011;67878;46.242;5.974;2023-12-28T14:28:16;4.53;;;2.00;;
78581;SDS011;67878;46.242;5.974;2023-12-28T14:30:42;5.57;;;2.35;;
78581;SDS011;67878;46.242;5.974;2023-12-28T14:33:08;3.17;;;2.13;;
78581;SDS011;67878;46.242;5.974;2023-12-28T14:35:34;6.07;;;2.20;;
78581;SDS011;67878;46.242;5.974;2023-12-28T14:38:00;2.90;;;2.28;;
78581;SDS011;67878;46.242;5.974;2023-12-28T14:40:25;3.78;;;2.10;;
78581;SDS011;67878;46.242;5.974;2023-12-28T14:42:51;4.80;;;2.22;;
78581;SDS011;67878;46.242;5.974;2023-12-28T14:45:16;2.35;;;2.00;;
78581;SDS011;67878;46.242;5.974;2023-12-28T14:47:47;4.00;;;2.00;;
78581;SDS011;67878;46.242;5.974;2023-12-28T14:50:17;4.05;;;2.35;;
78581;SDS011;67878;46.242;5.974;2023-12-28T14:52:44;3.40;;;2.10;;
78581;SDS011;67878;46.242;5.974;2023-12-28T14:55:11;3.42;;;1.95;;
78581;SDS011;67878;46.242;5.974;2023-12-28T14:57:36;3.28;;;2.28;;